Hauptseite
METAR-TAF:

Flughäfen :

Newquay Cornwall, England

Newquay Cornwall Airport

Breite: 50-26N, Länge: 005-00W, Höhe: 119 m

Beobachtung

Neuester Wetterbericht von vor 6 Stunden und 31 Minuten, um 20:20 UTC
Wind 8 kt aus West
Temperatur 16°C
Luftfeuchtigkeit 100%
Luftdruck 1022 hPa
Sichtweite: 0300 m
Sprühregen, Nebel

METAR: EGHQ 232020Z 26008KT 0300 R30/1500 DZ FG VV/// 16/16 Q1022

Zeit: 03:51 (02:51 UTC)

Prognose

Neuester Wetterbericht von vor 6 Stunden und 24 Minuten, um 20:27 UTC
Gültige Prognose vom 23 um 20 UTC bis 23 um 21 UTC
Wind 8 kt aus West/Südwest
Sichtweite: 0300 m
Durchbrochene Bewölkung in der Höhe von 100 ft
Nebel
Zeitweise
vom 23 um 20 UTC bis 23 um 21 UTC
Sichtweite: 1500 m
Durchbrochene Bewölkung in der Höhe von 200 ft
Sprühregen, feuchter Dunst

TAF: EGHQ 232027Z 2320/2321 24008KT 0300 FG BKN001 TEMPO 2320/2321 1500 DZ BR BKN002

METAR-TAF

Wetterbeobachtungen und Prognosen von mehr als 4000 Flughäfen (METAR und TAF Bericht).

Die verfügbaren Stationen werden durch gelbe und rote Markierungen auf der Karte dargestellt.

Führen Sie die Maus auf sie, um den Namen der Station zu sehen.

Darauf klicken, um die Beobachtung von Wetterbeobachtungen und Prognosen zu sehen.

Um die Karte zu ändern : klicken Sie auf den grünen Tasten mit einem schwarzen Kreuz Zum Vergrößern, auf den grünen Button mit einem Gedankenstrich zu verkleinern, oder auf die grünen Pfeile für benachbarte Karten.


METAR-TAF: